createdAt,value
2022-08-22T00:00:37.357Z,2.10
2022-08-22T00:01:29.765Z,2.33
2022-08-22T00:02:10.280Z,2.50
2022-08-22T00:02:42.774Z,1.93
2022-08-22T00:02:49.632Z,1.83
2022-08-22T00:02:49.988Z,2.50
2022-08-22T00:02:53.748Z,2.30
2022-08-22T00:03:07.733Z,2.23
2022-08-22T00:03:08.059Z,2.20
2022-08-22T00:03:09.242Z,2.50
2022-08-22T00:03:09.767Z,2.10
2022-08-22T00:03:16.334Z,3.20
2022-08-22T00:03:59.621Z,2.33
2022-08-22T00:04:37.388Z,2.30
2022-08-22T00:05:20.736Z,2.00
2022-08-22T00:06:05.122Z,2.40
2022-08-22T00:06:45.475Z,1.80
2022-08-22T00:07:28.364Z,2.10
2022-08-22T00:08:08.063Z,2.30
2022-08-22T00:08:52.522Z,2.80
2022-08-22T00:09:32.160Z,2.90
2022-08-22T00:10:09.442Z,2.10
2022-08-22T00:10:53.761Z,2.70
2022-08-22T00:11:36.662Z,2.10
2022-08-22T00:12:17.970Z,2.53
2022-08-22T00:12:58.357Z,2.10
2022-08-22T00:13:33.954Z,2.47
2022-08-22T00:14:11.356Z,2.30
2022-08-22T00:14:50.405Z,2.63
2022-08-22T00:15:42.070Z,2.33
2022-08-22T00:16:23.342Z,2.10
2022-08-22T00:17:04.373Z,2.37
2022-08-22T00:17:47.859Z,2.10
2022-08-22T00:18:27.256Z,2.97
2022-08-22T00:19:07.025Z,3.00
2022-08-22T00:19:49.189Z,2.57
2022-08-22T00:20:28.184Z,3.30
2022-08-22T00:21:06.906Z,3.17
2022-08-22T00:21:48.001Z,3.13
2022-08-22T00:22:23.470Z,2.60
2022-08-22T00:22:59.854Z,3.07
2022-08-22T00:23:41.157Z,2.50
2022-08-22T00:24:19.997Z,2.30
2022-08-22T00:24:56.255Z,2.30
2022-08-22T00:25:47.705Z,2.33
2022-08-22T00:26:25.594Z,2.53
2022-08-22T00:27:02.238Z,2.90
2022-08-22T00:27:45.044Z,2.73
2022-08-22T00:28:22.057Z,2.63
2022-08-22T00:29:00.506Z,2.40
2022-08-22T00:29:39.924Z,2.17
2022-08-22T00:30:15.919Z,2.57
2022-08-22T00:30:53.162Z,2.47
2022-08-22T00:31:32.028Z,2.70
2022-08-22T00:32:13.063Z,2.03
2022-08-22T00:32:49.022Z,2.20
2022-08-22T00:33:30.934Z,2.10
2022-08-22T00:34:07.871Z,2.20
2022-08-22T00:34:45.426Z,2.03
2022-08-22T00:35:26.328Z,2.30
2022-08-22T00:36:07.336Z,2.30
2022-08-22T00:36:47.811Z,2.30
2022-08-22T00:37:25.000Z,2.17
2022-08-22T00:38:03.000Z,2.07
2022-08-22T00:38:44.718Z,2.60
2022-08-22T00:39:19.593Z,2.20
2022-08-22T00:40:01.753Z,2.50
2022-08-22T00:40:58.414Z,1.90
2022-08-22T00:41:44.881Z,1.83
2022-08-22T00:42:44.469Z,2.40
2022-08-22T00:43:49.377Z,2.30
2022-08-22T00:44:40.789Z,2.10
2022-08-22T00:45:39.641Z,2.53
2022-08-22T00:46:45.063Z,1.93
2022-08-22T00:47:40.370Z,2.03
2022-08-22T00:48:37.449Z,2.17
2022-08-22T00:49:27.139Z,2.30
2022-08-22T00:50:22.965Z,2.17
2022-08-22T00:51:39.857Z,2.20
2022-08-22T00:52:50.598Z,2.50
2022-08-22T00:53:38.409Z,2.80
2022-08-22T00:54:21.898Z,2.40
2022-08-22T00:55:04.594Z,2.23
2022-08-22T00:55:46.755Z,2.37
2022-08-22T00:56:32.110Z,2.30
2022-08-22T00:57:17.476Z,2.30
2022-08-22T00:58:02.519Z,2.07
2022-08-22T00:58:55.761Z,2.40
2022-08-22T01:00:00.447Z,1.93
2022-08-22T01:00:38.290Z,2.10
2022-08-22T01:01:13.253Z,2.30
2022-08-22T01:01:54.798Z,2.23
2022-08-22T01:02:42.997Z,2.10
2022-08-22T01:03:47.972Z,2.10
2022-08-22T01:04:39.270Z,2.57
2022-08-22T01:05:31.061Z,2.20
2022-08-22T01:06:13.738Z,1.77
2022-08-22T01:06:54.267Z,2.07
2022-08-22T01:07:40.276Z,1.73
2022-08-22T01:08:24.833Z,2.20
2022-08-22T01:09:06.322Z,2.70
2022-08-22T01:09:49.450Z,2.37
2022-08-22T01:10:36.246Z,2.17
2022-08-22T01:11:22.206Z,1.87
2022-08-22T01:12:11.967Z,2.10
2022-08-22T01:13:01.589Z,2.00
2022-08-22T01:13:50.435Z,2.30
2022-08-22T01:14:39.262Z,2.10
2022-08-22T01:15:15.043Z,1.50
2022-08-22T01:15:51.478Z,2.27
2022-08-22T01:16:38.909Z,2.10
2022-08-22T01:18:01.053Z,2.17
2022-08-22T01:18:52.798Z,2.27
2022-08-22T01:19:48.327Z,2.33
2022-08-22T01:20:50.876Z,2.20
2022-08-22T01:21:39.334Z,2.43
2022-08-22T01:22:50.211Z,2.57
2022-08-22T01:24:01.670Z,1.73
2022-08-22T01:25:22.558Z,2.00
2022-08-22T01:26:40.468Z,2.27
2022-08-22T01:27:58.986Z,2.43
2022-08-22T01:28:48.734Z,2.10
2022-08-22T01:29:54.119Z,2.30
2022-08-22T01:31:07.429Z,2.20
2022-08-22T01:32:16.495Z,2.30
2022-08-22T01:33:39.225Z,1.97
2022-08-22T01:34:49.698Z,2.40
2022-08-22T01:35:54.568Z,2.50
2022-08-22T01:36:44.146Z,2.20
2022-08-22T01:37:43.723Z,2.00
2022-08-22T01:39:00.332Z,2.20
2022-08-22T01:39:43.888Z,2.10
2022-08-22T01:40:36.269Z,1.80
2022-08-22T01:41:49.543Z,2.00
2022-08-22T01:42:48.928Z,2.00
2022-08-22T01:43:51.268Z,1.87
2022-08-22T01:44:44.274Z,2.00
2022-08-22T01:45:45.397Z,2.50
2022-08-22T01:46:31.376Z,1.90
2022-08-22T01:47:07.683Z,1.93
2022-08-22T01:47:47.937Z,1.83
2022-08-22T01:48:23.018Z,2.10
2022-08-22T01:48:59.981Z,2.07
2022-08-22T01:49:41.382Z,1.80
2022-08-22T01:50:19.311Z,2.77
2022-08-22T01:50:55.385Z,2.50
2022-08-22T01:51:33.665Z,2.30
2022-08-22T01:52:12.326Z,2.20
2022-08-22T01:52:48.645Z,2.80
2022-08-22T01:53:28.238Z,2.47
2022-08-22T01:54:03.518Z,2.10
2022-08-22T01:54:43.921Z,2.40
2022-08-22T01:55:28.790Z,2.87
2022-08-22T01:56:04.211Z,2.53
2022-08-22T01:56:43.798Z,2.47
2022-08-22T01:57:16.350Z,2.60
2022-08-22T01:57:51.456Z,2.40
2022-08-22T01:58:31.633Z,2.77
2022-08-22T01:59:10.888Z,1.87
2022-08-22T01:59:46.218Z,2.60
2022-08-22T02:00:35.544Z,2.53
2022-08-22T02:01:18.292Z,2.60
2022-08-22T02:01:58.170Z,2.40
2022-08-22T02:02:42.889Z,2.13
2022-08-22T02:03:24.647Z,2.30
2022-08-22T02:04:02.014Z,2.53
2022-08-22T02:04:42.358Z,2.67
2022-08-22T02:05:24.866Z,2.60
2022-08-22T02:06:03.821Z,2.33
2022-08-22T02:06:42.694Z,2.17
2022-08-22T02:07:24.174Z,1.97
2022-08-22T02:08:09.855Z,2.27
2022-08-22T02:08:47.182Z,2.27
2022-08-22T02:09:27.217Z,2.60
2022-08-22T02:10:14.003Z,2.10
2022-08-22T02:10:56.316Z,2.30
2022-08-22T02:11:42.848Z,2.40
2022-08-22T02:12:29.665Z,1.87
2022-08-22T02:13:05.806Z,2.30
2022-08-22T02:13:51.221Z,2.60
2022-08-22T02:14:45.130Z,2.10
2022-08-22T02:15:21.314Z,2.13
2022-08-22T02:16:07.854Z,2.40
2022-08-22T02:16:44.986Z,2.40
2022-08-22T02:17:20.754Z,2.30
2022-08-22T02:18:10.333Z,2.13
2022-08-22T02:19:02.558Z,2.60
2022-08-22T02:19:39.964Z,2.07
2022-08-22T02:20:22.642Z,2.40
2022-08-22T02:21:00.032Z,1.70
2022-08-22T02:21:41.988Z,2.23
2022-08-22T02:22:30.241Z,2.10
2022-08-22T02:23:08.325Z,2.13
2022-08-22T02:23:48.339Z,2.57
2022-08-22T02:24:29.439Z,2.90
2022-08-22T02:25:09.895Z,2.70
2022-08-22T02:25:49.962Z,1.93
2022-08-22T02:26:27.298Z,2.13
2022-08-22T02:27:13.302Z,2.30
2022-08-22T02:27:53.139Z,2.10
2022-08-22T02:28:35.742Z,2.10
2022-08-22T02:29:12.505Z,2.50
2022-08-22T02:29:54.375Z,2.10
2022-08-22T02:30:32.642Z,2.10
2022-08-22T02:31:07.976Z,2.00
2022-08-22T02:31:43.150Z,2.60
2022-08-22T02:32:23.262Z,2.23
2022-08-22T02:33:02.581Z,2.00
2022-08-22T02:33:41.193Z,1.87
2022-08-22T02:34:35.213Z,2.47
2022-08-22T02:35:11.648Z,2.17
2022-08-22T02:35:55.108Z,2.00
2022-08-22T02:36:31.847Z,2.20
2022-08-22T02:37:09.460Z,2.40
2022-08-22T02:37:59.048Z,2.10
2022-08-22T02:38:35.849Z,2.40
2022-08-22T02:39:13.733Z,2.33
2022-08-22T02:39:53.111Z,4.23
2022-08-22T02:40:31.510Z,2.70
2022-08-22T02:41:13.403Z,2.03
2022-08-22T02:41:52.026Z,1.90
2022-08-22T02:42:28.339Z,2.37
2022-08-22T02:43:03.885Z,2.10
2022-08-22T02:43:43.758Z,2.20
2022-08-22T02:44:19.209Z,2.33
2022-08-22T02:44:57.845Z,2.33
2022-08-22T02:45:40.677Z,2.77
2022-08-22T02:46:20.210Z,1.90
2022-08-22T02:46:56.654Z,3.03
2022-08-22T02:47:36.518Z,2.23
2022-08-22T02:48:17.614Z,2.30
2022-08-22T02:48:59.116Z,2.23
2022-08-22T02:49:35.697Z,2.20
2022-08-22T02:50:20.033Z,2.23
2022-08-22T02:50:57.771Z,2.10
2022-08-22T02:51:36.245Z,2.63
2022-08-22T02:52:12.660Z,2.70
2022-08-22T02:52:59.318Z,2.33
2022-08-22T02:53:36.406Z,2.40
2022-08-22T02:54:14.830Z,2.50
2022-08-22T02:54:55.539Z,2.17
2022-08-22T02:55:36.918Z,2.50
2022-08-22T02:56:14.802Z,2.47
2022-08-22T02:56:50.630Z,1.97
2022-08-22T02:57:39.589Z,2.00
2022-08-22T02:58:22.409Z,2.30
2022-08-22T02:58:59.224Z,2.10
2022-08-22T02:59:35.416Z,2.40
2022-08-22T03:00:31.334Z,2.30
2022-08-22T03:01:35.357Z,2.07
2022-08-22T03:02:44.506Z,2.43
2022-08-22T03:03:21.993Z,2.40
2022-08-22T03:04:27.850Z,2.00
2022-08-22T03:05:05.241Z,2.33
2022-08-22T03:06:00.494Z,2.40
2022-08-22T03:06:39.211Z,1.90
2022-08-22T03:07:17.949Z,1.90
2022-08-22T03:07:59.221Z,2.13
2022-08-22T03:08:38.379Z,2.20
2022-08-22T03:09:25.316Z,2.90
2022-08-22T03:10:04.282Z,2.93
2022-08-22T03:10:42.554Z,2.70
2022-08-22T03:11:22.149Z,2.53
2022-08-22T03:12:03.766Z,2.60
2022-08-22T03:12:43.229Z,2.90
2022-08-22T03:13:22.317Z,3.20
2022-08-22T03:14:02.819Z,3.13
2022-08-22T03:14:41.283Z,2.80
2022-08-22T03:15:22.317Z,3.00
2022-08-22T03:15:57.751Z,2.73
2022-08-22T03:16:37.819Z,2.50
2022-08-22T03:17:16.349Z,3.13
2022-08-22T03:17:51.523Z,2.67
2022-08-22T03:18:29.778Z,2.90
2022-08-22T03:19:04.866Z,2.70
2022-08-22T03:19:49.342Z,2.60
2022-08-22T03:20:41.210Z,2.83
2022-08-22T03:21:17.399Z,2.83
2022-08-22T03:21:56.201Z,2.40
2022-08-22T03:22:38.409Z,2.37
2022-08-22T03:23:18.039Z,2.70
2022-08-22T03:23:54.877Z,2.37
2022-08-22T03:24:34.804Z,2.07
2022-08-22T03:25:13.215Z,2.13
2022-08-22T03:25:49.154Z,2.67
2022-08-22T03:26:28.987Z,2.73
2022-08-22T03:27:05.779Z,2.20
2022-08-22T03:27:41.675Z,2.60
2022-08-22T03:28:19.449Z,2.40
2022-08-22T03:28:59.403Z,2.40
2022-08-22T03:29:37.169Z,2.13
2022-08-22T03:30:16.625Z,2.20
2022-08-22T03:30:58.113Z,2.20
2022-08-22T03:31:34.538Z,1.90
2022-08-22T03:32:13.344Z,2.00
2022-08-22T03:32:52.485Z,1.97
2022-08-22T03:33:28.986Z,2.30
2022-08-22T03:34:22.458Z,2.30
2022-08-22T03:35:00.061Z,2.47
2022-08-22T03:35:36.867Z,1.67
2022-08-22T03:36:25.878Z,2.00
2022-08-22T03:37:05.478Z,2.10
2022-08-22T03:37:40.818Z,2.30
2022-08-22T03:38:23.490Z,2.00
2022-08-22T03:39:11.518Z,2.00
2022-08-22T03:39:59.358Z,2.03
2022-08-22T03:40:35.302Z,2.30
2022-08-22T03:41:33.173Z,2.37
2022-08-22T03:42:30.186Z,2.50
2022-08-22T03:43:18.407Z,2.10
2022-08-22T03:44:12.145Z,1.83
2022-08-22T03:45:12.869Z,2.37
2022-08-22T03:46:20.886Z,2.20
2022-08-22T03:47:06.834Z,2.00
2022-08-22T03:48:01.743Z,2.20
2022-08-22T03:49:16.058Z,1.90
2022-08-22T03:50:16.953Z,2.20
2022-08-22T03:51:11.827Z,1.77
2022-08-22T03:52:14.015Z,5.07
2022-08-22T03:53:19.184Z,2.13
2022-08-22T03:54:24.844Z,2.13
2022-08-22T03:55:20.977Z,2.17
2022-08-22T03:56:28.122Z,1.83
2022-08-22T03:57:38.677Z,2.37
2022-08-22T03:58:38.950Z,2.57
2022-08-22T03:59:46.298Z,3.63
2022-08-22T04:00:37.810Z,3.50
2022-08-22T04:01:47.254Z,3.10
2022-08-22T04:02:43.999Z,2.30
2022-08-22T04:03:49.211Z,2.60
2022-08-22T04:04:46.154Z,2.60
2022-08-22T04:05:34.759Z,2.73
2022-08-22T04:06:42.166Z,3.23
2022-08-22T04:07:56.252Z,3.50
2022-08-22T04:09:09.466Z,4.10
2022-08-22T04:10:03.688Z,3.47
2022-08-22T04:11:07.805Z,3.80
2022-08-22T04:12:05.492Z,3.27
2022-08-22T04:12:50.760Z,2.97
2022-08-22T04:14:06.984Z,3.03
2022-08-22T04:14:56.626Z,2.40
2022-08-22T04:15:41.854Z,2.60
2022-08-22T04:16:58.535Z,2.10
2022-08-22T04:17:48.230Z,2.17
2022-08-22T04:19:00.682Z,2.10
2022-08-22T04:19:54.253Z,2.40
2022-08-22T04:21:10.878Z,2.83
2022-08-22T04:22:00.741Z,2.70
2022-08-22T04:22:52.166Z,2.20
2022-08-22T04:23:46.593Z,2.23
2022-08-22T04:24:48.395Z,3.13
2022-08-22T04:25:32.990Z,3.07
2022-08-22T04:26:12.297Z,2.80
2022-08-22T04:26:52.295Z,2.60
2022-08-22T04:27:28.182Z,2.80
2022-08-22T04:28:05.794Z,2.33
2022-08-22T04:28:43.459Z,2.70
2022-08-22T04:29:32.509Z,2.83
2022-08-22T04:30:12.597Z,2.53
2022-08-22T04:30:48.012Z,2.20
2022-08-22T04:31:26.077Z,2.80
2022-08-22T04:32:07.625Z,2.50
2022-08-22T04:32:44.570Z,2.40
2022-08-22T04:33:21.682Z,1.90
2022-08-22T04:34:00.566Z,2.40
2022-08-22T04:34:38.307Z,1.93
2022-08-22T04:35:16.959Z,2.40
2022-08-22T04:36:01.356Z,2.20
2022-08-22T04:36:38.497Z,2.57
2022-08-22T04:37:18.854Z,2.27
2022-08-22T04:37:56.450Z,1.57
2022-08-22T04:38:32.881Z,1.80
2022-08-22T04:39:12.109Z,1.90
2022-08-22T04:39:49.415Z,2.30
2022-08-22T04:40:25.920Z,2.00
2022-08-22T04:41:07.261Z,1.47
2022-08-22T04:41:46.861Z,2.10
2022-08-22T04:42:36.916Z,1.80
2022-08-22T04:43:14.550Z,2.37
2022-08-22T04:43:49.605Z,2.20
2022-08-22T04:44:33.002Z,1.80
2022-08-22T04:45:10.008Z,2.43
2022-08-22T04:45:46.313Z,2.37
2022-08-22T04:46:36.689Z,2.73
2022-08-22T04:47:29.442Z,2.20
2022-08-22T04:48:08.658Z,2.53
2022-08-22T04:48:45.141Z,2.80
2022-08-22T04:49:23.014Z,2.83
2022-08-22T04:50:01.979Z,3.07
2022-08-22T04:50:43.125Z,3.03
2022-08-22T04:51:24.001Z,2.60
2022-08-22T04:52:03.490Z,2.33
2022-08-22T04:52:46.481Z,2.73
2022-08-22T04:53:45.610Z,2.30
2022-08-22T04:54:30.454Z,2.90
2022-08-22T04:55:08.746Z,2.70
2022-08-22T04:55:52.437Z,2.10
2022-08-22T04:56:33.373Z,2.40
2022-08-22T04:57:17.401Z,2.50
2022-08-22T04:57:58.898Z,2.30
2022-08-22T04:58:44.909Z,2.40
2022-08-22T04:59:18.890Z,2.17
2022-08-22T04:59:53.846Z,2.27
2022-08-22T05:00:26.366Z,2.60
2022-08-22T05:01:14.772Z,2.30
2022-08-22T05:01:51.619Z,2.23
2022-08-22T05:02:27.712Z,2.47
2022-08-22T05:03:02.068Z,2.40
2022-08-22T05:03:44.762Z,2.63
2022-08-22T05:04:20.213Z,2.27
2022-08-22T05:05:01.845Z,2.53
2022-08-22T05:05:38.672Z,2.20
2022-08-22T05:06:12.293Z,2.57
2022-08-22T05:06:51.113Z,2.43
2022-08-22T05:07:26.743Z,2.63
2022-08-22T05:08:00.742Z,2.40
2022-08-22T05:08:38.126Z,2.37
2022-08-22T05:09:21.021Z,2.53
2022-08-22T05:09:56.509Z,2.30
2022-08-22T05:10:37.746Z,2.30
2022-08-22T05:11:11.113Z,2.60
2022-08-22T05:11:48.903Z,2.40
2022-08-22T05:12:26.149Z,2.63
2022-08-22T05:13:06.945Z,2.33
2022-08-22T05:13:46.840Z,2.33
2022-08-22T05:14:21.509Z,2.53
2022-08-22T05:14:57.481Z,2.53
2022-08-22T05:15:36.630Z,2.40
2022-08-22T05:16:12.522Z,2.10
2022-08-22T05:16:46.610Z,2.27
2022-08-22T05:17:27.171Z,2.10
2022-08-22T05:18:02.537Z,2.80
2022-08-22T05:18:37.350Z,2.50
2022-08-22T05:19:16.896Z,2.47
2022-08-22T05:19:59.636Z,2.00
2022-08-22T05:20:32.275Z,2.30
2022-08-22T05:21:11.133Z,2.60
2022-08-22T05:21:48.309Z,2.53
2022-08-22T05:22:22.110Z,3.03
2022-08-22T05:22:59.603Z,2.83
2022-08-22T05:23:36.273Z,3.33
2022-08-22T05:24:11.509Z,3.23
2022-08-22T05:24:49.901Z,3.07
2022-08-22T05:25:25.314Z,3.20
2022-08-22T05:25:59.916Z,3.50
2022-08-22T05:26:39.392Z,2.93
2022-08-22T05:27:19.061Z,3.13
2022-08-22T05:28:02.194Z,3.10
2022-08-22T05:28:36.783Z,3.23
2022-08-22T05:29:10.403Z,3.10
2022-08-22T05:29:48.722Z,2.73
2022-08-22T05:30:24.157Z,2.93
2022-08-22T05:30:59.249Z,3.40
2022-08-22T05:31:35.840Z,3.10
2022-08-22T05:32:12.716Z,2.80
2022-08-22T05:32:53.677Z,3.80
2022-08-22T05:33:28.423Z,3.77
2022-08-22T05:34:07.412Z,3.20
2022-08-22T05:34:41.541Z,2.93
2022-08-22T05:35:14.878Z,4.50
2022-08-22T05:35:57.758Z,2.93
2022-08-22T05:36:33.583Z,2.90
2022-08-22T05:37:10.414Z,3.23
2022-08-22T05:37:48.385Z,2.90
2022-08-22T05:38:23.482Z,3.30
2022-08-22T05:38:59.642Z,3.30
2022-08-22T05:39:35.065Z,3.20
2022-08-22T05:40:09.144Z,3.20
2022-08-22T05:40:43.124Z,2.90
2022-08-22T05:41:23.828Z,3.00
2022-08-22T05:41:58.349Z,3.40
2022-08-22T05:42:35.174Z,3.00
2022-08-22T05:43:13.354Z,3.23
2022-08-22T05:43:47.425Z,3.00
2022-08-22T05:44:22.078Z,3.40
2022-08-22T05:44:57.537Z,3.33
2022-08-22T05:45:30.246Z,3.20
2022-08-22T05:46:04.209Z,2.93
2022-08-22T05:46:44.544Z,2.87
2022-08-22T05:47:22.702Z,3.20
2022-08-22T05:48:01.407Z,3.13
2022-08-22T05:48:38.326Z,3.20
2022-08-22T05:49:20.459Z,2.80
2022-08-22T05:49:58.621Z,3.00
2022-08-22T05:50:39.652Z,3.87
2022-08-22T05:51:16.577Z,3.20
2022-08-22T05:52:04.170Z,3.20
2022-08-22T05:52:57.962Z,3.33
2022-08-22T05:53:38.326Z,3.00
2022-08-22T05:54:14.009Z,3.60
2022-08-22T05:54:51.334Z,3.20
2022-08-22T05:55:29.450Z,3.57
2022-08-22T05:56:04.725Z,4.00
2022-08-22T05:56:44.242Z,4.33
2022-08-22T05:57:23.358Z,3.17
2022-08-22T05:58:14.068Z,3.43
2022-08-22T05:58:50.464Z,4.03
2022-08-22T05:59:28.141Z,3.90
2022-08-22T06:00:06.290Z,3.47
2022-08-22T06:00:44.571Z,3.70
2022-08-22T06:01:32.940Z,3.70
2022-08-22T06:02:11.474Z,3.10
2022-08-22T06:02:56.445Z,3.80
2022-08-22T06:03:31.889Z,3.50
2022-08-22T06:04:07.955Z,3.07
2022-08-22T06:04:50.179Z,2.70
2022-08-22T06:05:25.951Z,3.03
2022-08-22T06:06:02.945Z,3.20
2022-08-22T06:06:43.391Z,3.07
2022-08-22T06:07:19.310Z,3.33
2022-08-22T06:07:52.328Z,3.90
2022-08-22T06:08:29.689Z,3.50
2022-08-22T06:09:04.082Z,3.13
2022-08-22T06:09:59.566Z,3.40
2022-08-22T06:10:36.161Z,3.20
2022-08-22T06:11:15.274Z,3.57
2022-08-22T06:11:53.042Z,3.83
2022-08-22T06:12:32.487Z,3.67
2022-08-22T06:13:13.918Z,4.83
2022-08-22T06:13:53.301Z,3.40
2022-08-22T06:14:34.014Z,3.60
2022-08-22T06:15:14.084Z,3.73
2022-08-22T06:15:50.186Z,3.30
2022-08-22T06:16:27.809Z,3.57
2022-08-22T06:17:06.312Z,3.43
2022-08-22T06:17:42.294Z,3.50
2022-08-22T06:18:19.602Z,3.33
2022-08-22T06:18:52.349Z,3.93
2022-08-22T06:19:25.007Z,3.70
2022-08-22T06:20:00.526Z,3.60
2022-08-22T06:20:36.378Z,3.87
2022-08-22T06:21:15.401Z,3.93
2022-08-22T06:21:49.509Z,4.57
2022-08-22T06:22:27.725Z,4.83
2022-08-22T06:23:01.915Z,4.67
2022-08-22T06:23:38.034Z,3.90
2022-08-22T06:24:16.877Z,4.33
2022-08-22T06:24:50.968Z,4.20
2022-08-22T06:25:25.947Z,4.30
2022-08-22T06:26:02.749Z,4.60
2022-08-22T06:26:38.287Z,4.60
2022-08-22T06:27:16.953Z,5.13
2022-08-22T06:27:50.002Z,4.97
2022-08-22T06:28:29.981Z,4.37
2022-08-22T06:29:03.511Z,4.63
2022-08-22T06:29:42.670Z,4.60
2022-08-22T06:30:16.719Z,4.20
2022-08-22T06:30:50.630Z,3.93
2022-08-22T06:31:26.837Z,4.10
2022-08-22T06:32:00.517Z,3.63
2022-08-22T06:32:59.104Z,4.50
2022-08-22T06:33:36.089Z,4.40
2022-08-22T06:34:11.424Z,4.67
2022-08-22T06:34:46.326Z,4.50
2022-08-22T06:35:25.197Z,4.77
2022-08-22T06:36:15.857Z,4.20
2022-08-22T06:36:53.941Z,4.20
2022-08-22T06:37:34.193Z,4.37
2022-08-22T06:38:06.540Z,5.47
2022-08-22T06:38:53.886Z,4.73
2022-08-22T06:39:31.256Z,4.97
2022-08-22T06:40:05.646Z,4.10
2022-08-22T06:40:43.335Z,5.40
2022-08-22T06:41:15.731Z,5.57
2022-08-22T06:41:51.912Z,6.03
2022-08-22T06:42:30.284Z,5.27
2022-08-22T06:43:02.678Z,5.97
2022-08-22T06:43:43.046Z,4.90
2022-08-22T06:44:20.846Z,5.90
2022-08-22T06:44:56.533Z,4.80
2022-08-22T06:45:31.216Z,5.20
2022-08-22T06:46:06.367Z,5.83
2022-08-22T06:46:39.076Z,5.40
2022-08-22T06:47:18.495Z,4.97
2022-08-22T06:47:53.744Z,5.30
2022-08-22T06:48:27.126Z,5.53
2022-08-22T06:49:03.218Z,7.13
2022-08-22T06:49:36.877Z,4.50
2022-08-22T06:50:13.776Z,4.53
2022-08-22T06:50:51.860Z,5.77
2022-08-22T06:51:25.302Z,4.90
2022-08-22T06:52:05.369Z,4.50
2022-08-22T06:52:45.939Z,4.93
2022-08-22T06:53:20.311Z,5.13
2022-08-22T06:53:57.966Z,4.73
2022-08-22T06:54:34.486Z,4.97
2022-08-22T06:55:11.869Z,6.00
2022-08-22T06:55:47.988Z,7.67
2022-08-22T06:56:24.131Z,6.10
2022-08-22T06:56:56.754Z,5.20
2022-08-22T06:57:36.417Z,5.37
2022-08-22T06:58:13.696Z,5.13
2022-08-22T06:58:50.549Z,5.77
2022-08-22T06:59:29.587Z,4.43
2022-08-22T07:00:06.902Z,6.03
2022-08-22T07:00:49.758Z,4.97
2022-08-22T07:01:31.995Z,5.57
2022-08-22T07:02:11.909Z,5.00
2022-08-22T07:02:46.085Z,6.70
2022-08-22T07:03:21.266Z,5.23
2022-08-22T07:03:58.552Z,4.97
2022-08-22T07:04:31.301Z,6.10
2022-08-22T07:05:05.642Z,6.00
2022-08-22T07:05:43.502Z,5.87
2022-08-22T07:06:17.752Z,5.13
2022-08-22T07:06:51.040Z,5.20
2022-08-22T07:07:28.668Z,5.53
2022-08-22T07:08:06.382Z,5.43
2022-08-22T07:08:41.303Z,4.90
2022-08-22T07:09:20.717Z,5.70
2022-08-22T07:09:57.707Z,5.50
2022-08-22T07:10:30.095Z,5.37
2022-08-22T07:11:08.990Z,5.30
2022-08-22T07:11:44.958Z,5.43
2022-08-22T07:12:19.994Z,5.40
2022-08-22T07:12:54.565Z,5.63
2022-08-22T07:13:30.762Z,5.73
2022-08-22T07:14:08.481Z,6.00
2022-08-22T07:14:45.179Z,6.13
2022-08-22T07:15:22.578Z,6.10
2022-08-22T07:15:57.581Z,6.13
2022-08-22T07:16:35.640Z,6.40
2022-08-22T07:17:09.436Z,5.50
2022-08-22T07:17:49.831Z,6.33
2022-08-22T07:18:26.644Z,6.00
2022-08-22T07:18:59.039Z,6.40
2022-08-22T07:19:34.374Z,6.50
2022-08-22T07:20:19.649Z,6.27
2022-08-22T07:20:55.140Z,6.80
2022-08-22T07:21:29.758Z,6.13
2022-08-22T07:22:14.684Z,5.80
2022-08-22T07:22:54.275Z,6.53
2022-08-22T07:23:32.124Z,5.53
2022-08-22T07:24:07.305Z,6.00
2022-08-22T07:24:44.722Z,6.70
2022-08-22T07:25:17.124Z,6.37
2022-08-22T07:25:55.777Z,6.60
2022-08-22T07:26:32.560Z,6.17
2022-08-22T07:27:11.837Z,6.23
2022-08-22T07:28:06.969Z,5.63
2022-08-22T07:28:51.521Z,5.83
2022-08-22T07:29:45.476Z,5.80
2022-08-22T07:30:26.587Z,5.80
2022-08-22T07:31:06.162Z,5.20
2022-08-22T07:31:43.534Z,5.20
2022-08-22T07:32:21.715Z,5.97
2022-08-22T07:33:15.302Z,6.03
2022-08-22T07:33:55.135Z,5.63
2022-08-22T07:34:39.006Z,5.77
2022-08-22T07:35:13.774Z,5.77
2022-08-22T07:35:53.744Z,5.80
2022-08-22T07:36:32.033Z,5.80
2022-08-22T07:37:10.514Z,5.57
2022-08-22T07:37:53.241Z,5.90
2022-08-22T07:38:32.194Z,6.03
2022-08-22T07:39:23.820Z,5.70
2022-08-22T07:40:01.645Z,5.33
2022-08-22T07:40:41.579Z,5.50
2022-08-22T07:41:17.378Z,6.03
2022-08-22T07:42:07.561Z,6.03
2022-08-22T07:42:44.366Z,5.73
2022-08-22T07:43:29.411Z,6.17
2022-08-22T07:44:14.973Z,5.80
2022-08-22T07:45:03.894Z,7.53
2022-08-22T07:45:39.569Z,5.67
2022-08-22T07:46:21.544Z,5.60
2022-08-22T07:47:00.782Z,5.30
2022-08-22T07:47:46.011Z,6.20
2022-08-22T07:48:28.530Z,5.60
2022-08-22T07:49:09.363Z,6.03
2022-08-22T07:49:52.981Z,5.07
2022-08-22T07:50:30.081Z,5.80
2022-08-22T07:51:09.335Z,5.73
2022-08-22T07:51:44.147Z,5.40
2022-08-22T07:52:16.974Z,5.40
2022-08-22T07:52:53.037Z,5.37
2022-08-22T07:53:30.382Z,5.50
2022-08-22T07:54:08.634Z,4.90
2022-08-22T07:54:47.148Z,5.20
2022-08-22T07:55:22.765Z,6.30
2022-08-22T07:55:58.330Z,5.33
2022-08-22T07:56:33.863Z,5.77
2022-08-22T07:57:09.669Z,5.30
2022-08-22T07:57:47.901Z,5.30
2022-08-22T07:58:22.478Z,5.27
2022-08-22T07:59:00.366Z,4.67
2022-08-22T07:59:35.275Z,5.00
2022-08-22T08:00:15.122Z,4.70
2022-08-22T08:00:52.181Z,5.60
2022-08-22T08:01:26.034Z,5.30
2022-08-22T08:02:00.758Z,5.37
2022-08-22T08:02:35.774Z,5.60
2022-08-22T08:03:09.517Z,5.43
2022-08-22T08:03:42.426Z,5.17
2022-08-22T08:04:21.541Z,4.90
2022-08-22T08:04:55.693Z,4.73
2022-08-22T08:05:29.786Z,5.10
2022-08-22T08:06:05.027Z,4.77
2022-08-22T08:06:37.746Z,4.57
2022-08-22T08:07:12.482Z,4.73
2022-08-22T08:07:48.812Z,4.47
2022-08-22T08:08:25.081Z,3.90
2022-08-22T08:09:00.274Z,4.03
2022-08-22T08:09:35.332Z,3.50
2022-08-22T08:10:16.421Z,3.97
2022-08-22T08:10:51.037Z,4.27
2022-08-22T08:11:29.453Z,3.57
2022-08-22T08:12:05.467Z,3.70
2022-08-22T08:13:01.981Z,3.80
2022-08-22T08:13:38.256Z,3.57
2022-08-22T08:14:14.866Z,3.30
2022-08-22T08:14:52.290Z,3.23
2022-08-22T08:15:27.410Z,3.47
2022-08-22T08:16:04.115Z,3.20
2022-08-22T08:16:43.418Z,3.67
2022-08-22T08:17:22.174Z,3.33
2022-08-22T08:17:58.430Z,3.60
2022-08-22T08:18:36.119Z,3.00
2022-08-22T08:19:10.548Z,3.40
2022-08-22T08:19:47.354Z,3.30
2022-08-22T08:20:22.386Z,3.47
2022-08-22T08:20:57.485Z,3.30
2022-08-22T08:21:34.139Z,3.40
2022-08-22T08:22:06.871Z,3.10
2022-08-22T08:22:43.734Z,3.40
2022-08-22T08:23:23.333Z,3.10
2022-08-22T08:23:59.742Z,3.10
2022-08-22T08:24:36.187Z,3.07
2022-08-22T08:25:18.998Z,3.10
2022-08-22T08:25:56.355Z,3.13
2022-08-22T08:26:33.611Z,3.70
2022-08-22T08:27:24.305Z,3.00
2022-08-22T08:28:12.902Z,2.83
2022-08-22T08:28:52.867Z,3.10
2022-08-22T08:29:25.222Z,2.70
2022-08-22T08:30:00.210Z,2.80
2022-08-22T08:30:40.584Z,3.00
2022-08-22T08:31:21.893Z,3.10
2022-08-22T08:31:54.482Z,3.10
2022-08-22T08:32:30.406Z,3.90
2022-08-22T08:33:25.013Z,3.17
2022-08-22T08:34:03.577Z,2.77
2022-08-22T08:34:40.933Z,3.77
2022-08-22T08:35:19.269Z,3.37
2022-08-22T08:36:02.540Z,4.53
2022-08-22T08:36:43.139Z,3.80
2022-08-22T08:37:20.625Z,4.33
2022-08-22T08:37:57.110Z,3.50
2022-08-22T08:38:32.586Z,4.27
2022-08-22T08:39:14.275Z,3.63
2022-08-22T08:39:51.051Z,2.73
2022-08-22T08:40:48.530Z,3.00
2022-08-22T08:41:37.254Z,2.93
2022-08-22T08:42:29.121Z,3.17
2022-08-22T08:43:28.015Z,3.03
2022-08-22T08:44:08.814Z,3.17
2022-08-22T08:45:12.234Z,2.93
2022-08-22T08:46:19.406Z,2.90
2022-08-22T08:47:12.390Z,2.60
2022-08-22T08:48:07.769Z,3.00
2022-08-22T08:48:56.232Z,2.83
2022-08-22T08:49:47.575Z,3.20
2022-08-22T08:50:52.197Z,3.10
2022-08-22T08:51:48.536Z,3.50
2022-08-22T08:52:40.526Z,2.80
2022-08-22T08:53:37.467Z,3.33
2022-08-22T08:54:24.017Z,3.67
2022-08-22T08:55:21.768Z,3.00
2022-08-22T08:55:59.729Z,3.70
2022-08-22T08:56:39.368Z,3.13
2022-08-22T08:57:19.593Z,2.93
2022-08-22T08:58:07.015Z,3.03
2022-08-22T08:58:43.880Z,2.90
2022-08-22T08:59:30.370Z,2.90
2022-08-22T09:00:08.149Z,3.10
2022-08-22T09:00:53.877Z,3.13
2022-08-22T09:02:00.139Z,3.03
2022-08-22T09:02:58.905Z,2.53
2022-08-22T09:04:05.890Z,2.93
2022-08-22T09:05:24.521Z,2.43
2022-08-22T09:06:15.229Z,2.47
2022-08-22T09:07:21.828Z,2.60
2022-08-22T09:08:11.879Z,3.10
2022-08-22T09:08:55.777Z,3.10
2022-08-22T09:09:52.503Z,2.47
2022-08-22T09:10:55.574Z,2.47
2022-08-22T09:12:03.179Z,2.40
2022-08-22T09:12:56.966Z,2.17
2022-08-22T09:13:56.140Z,2.17
2022-08-22T09:14:46.206Z,2.40
2022-08-22T09:15:37.494Z,2.80
2022-08-22T09:16:22.801Z,3.43
2022-08-22T09:17:23.430Z,2.50
2022-08-22T09:18:31.377Z,2.70
2022-08-22T09:19:27.911Z,3.00
2022-08-22T09:20:20.797Z,2.27
2022-08-22T09:21:31.265Z,2.10
2022-08-22T09:22:14.335Z,2.30
2022-08-22T09:23:25.922Z,2.30